Time;durP1;ratioP1;P1;durP2;ratioP2;P2;SDS_P1;SDS_P2;PMS_P1;PMS_P2;Temp;Humidity;BMP_temperature;BMP_pressure;BME280_temperature;BME280_humidity;BME280_pressure;Samples;Min_cycle;Max_cycle;Signal;HPM_P1;HPM_P2
2022/05/30 06:37:56;;;;;;;;;;;9.20;99.90;;;;;;5142603;27;20310;-67
2022/05/30 06:40:23;;;;;;;;;;;9.60;99.90;;;;;;5109592;28;19924;-68
2022/05/30 06:42:49;;;;;;;;;;;9.80;99.90;;;;;;5110365;28;19971;-68
2022/05/30 06:45:16;;;;;;;;;;;9.90;99.90;;;;;;5109428;28;20023;-69
2022/05/30 06:47:44;;;;;;;;;;;9.80;99.90;;;;;;5109426;28;19969;-69
2022/05/30 06:50:10;;;;;;;;;;;9.90;99.90;;;;;;5108408;28;19950;-70
2022/05/30 06:52:38;;;;;;;;;;;10.10;99.90;;;;;;5108301;28;19924;-70
2022/05/30 06:55:07;;;;;;;;;;;10.40;99.90;;;;;;5107456;28;19937;-70
2022/05/30 07:00:32;;;;;;;;;;;10.50;99.90;;;;;;5046444;28;19920;-69
2022/05/30 07:02:59;;;;;;;;;;;10.80;99.90;;;;;;5046876;28;20012;-70
2022/05/30 07:05:26;;;;;;;;;;;10.90;99.90;;;;;;5073336;28;20323;-70
2022/05/30 07:07:56;;;;;;;;;;;10.90;99.90;;;;;;5109465;28;19973;-70
2022/05/30 07:10:24;;;;;;;;;;;11.00;99.90;;;;;;5109555;28;19969;-70
2022/05/30 07:12:51;;;;;;;;;;;11.40;99.90;;;;;;5109486;28;20019;-70
2022/05/30 07:15:18;;;;;;;;;;;11.50;99.90;;;;;;5109042;28;19924;-70
2022/05/30 07:17:45;;;;;;;;;;;11.50;99.90;;;;;;5109198;28;20311;-70
2022/05/30 07:20:12;;;;;;;;;;;11.50;99.90;;;;;;5109219;28;20014;-71
2022/05/30 07:22:39;;;;;;;;;;;11.50;99.90;;;;;;5109399;28;19982;-70
2022/05/30 07:25:06;;;;;;;;;;;11.70;99.90;;;;;;5108878;28;19927;-70
2022/05/30 07:27:34;;;;;;;;;;;11.80;99.90;;;;;;5109080;28;20040;-70
2022/05/30 07:30:01;;;;;;;;;;;11.90;99.90;;;;;;5108927;28;20010;-70
2022/05/30 07:32:28;;;;;;;;;;;12.20;99.90;;;;;;5108907;28;20006;-70
2022/05/30 07:34:54;;;;;;;;;;;12.00;99.90;;;;;;5108525;28;19930;-70
2022/05/30 07:37:21;;;;;;;;;;;12.20;99.90;;;;;;5124992;28;19923;-70
2022/05/30 07:39:47;;;;;;;;;;;12.10;99.90;;;;;;5129231;28;19930;-70
2022/05/30 07:42:14;;;;;;;;;;;12.10;99.90;;;;;;5129169;28;19930;-70
2022/05/30 07:44:42;;;;;;;;;;;12.40;99.90;;;;;;5129094;28;19928;-70
2022/05/30 07:47:09;;;;;;;;;;;12.70;99.90;;;;;;5127567;28;20022;-70
2022/05/30 07:49:36;;;;;;;;;;;12.90;99.90;;;;;;5115301;28;19931;-70
2022/05/30 07:52:03;;;;;;;;;;;13.10;99.90;;;;;;5115603;28;19930;-70
2022/05/30 07:54:29;;;;;;;;;;;12.80;99.90;;;;;;5115497;28;19923;-70
2022/05/30 07:56:56;;;;;;;;;;;12.80;99.90;;;;;;5115145;28;20283;-70
2022/05/30 07:59:23;;;;;;;;;;;12.90;99.90;;;;;;5115320;28;19963;-70
2022/05/30 08:01:51;;;;;;;;;;;13.20;99.90;;;;;;5115266;28;20003;-70
2022/05/30 08:04:17;;;;;;;;;;;13.40;99.10;;;;;;5115260;28;19970;-70
2022/05/30 08:06:44;;;;;;;;;;;13.60;99.30;;;;;;5114766;28;20018;-70
2022/05/30 08:09:11;;;;;;;;;;;14.20;98.10;;;;;;5114991;28;20410;-70
2022/05/30 08:11:37;;;;;;;;;;;13.60;95.50;;;;;;5115045;28;20014;-70
2022/05/30 08:14:06;;;;;;;;;;;13.50;96.70;;;;;;5114924;28;19930;-70
2022/05/30 08:16:37;;;;;;;;;;;13.60;96.20;;;;;;5114787;28;19924;-70
2022/05/30 08:19:05;;;;;;;;;;;14.00;97.20;;;;;;5114959;28;19924;-70
2022/05/30 08:21:32;;;;;;;;;;;14.20;97.10;;;;;;5114763;28;19924;-70
2022/05/30 08:23:59;;;;;;;;;;;14.40;95.60;;;;;;5115174;28;20298;-70
2022/05/30 08:26:25;;;;;;;;;;;14.90;95.20;;;;;;5114968;28;20287;-70
2022/05/30 08:28:52;;;;;;;;;;;15.40;94.20;;;;;;5114651;28;19927;-70
2022/05/30 08:31:19;;;;;;;;;;;14.80;94.60;;;;;;5114591;28;20427;-70
2022/05/30 08:33:46;;;;;;;;;;;15.30;95.10;;;;;;5114648;28;20474;-70
2022/05/30 08:36:14;;;;;;;;;;;15.70;94.40;;;;;;5114175;28;19974;-70
2022/05/30 08:38:42;;;;;;;;;;;16.30;93.30;;;;;;5114803;28;19979;-71
2022/05/30 08:43:55;;;;;;;;;;;17.20;92.10;;;;;;5114421;28;19926;-70
2022/05/30 08:46:31;;;;;;;;;;;18.10;90.20;;;;;;5114259;28;19930;-70
2022/05/30 08:49:03;;;;;;;;;;;18.10;89.90;;;;;;5114163;28;20015;-70
2022/05/30 08:51:40;;;;;;;;;;;18.10;87.90;;;;;;5114372;28;20011;-70
2022/05/30 08:54:16;;;;;;;;;;;19.00;86.50;;;;;;5114414;28;19924;-70
2022/05/30 08:56:44;;;;;;;;;;;18.40;86.00;;;;;;5113612;28;19942;-70
2022/05/30 08:59:30;;;;;;;;;;;19.20;86.70;;;;;;5113178;28;20030;-70
2022/05/30 09:02:00;;;;;;;;;;;18.80;86.40;;;;;;5113909;28;20351;-70
2022/05/30 09:04:29;;;;;;;;;;;18.10;85.50;;;;;;5114250;28;19924;-71
2022/05/30 09:06:59;;;;;;;;;;;18.60;85.90;;;;;;5113837;28;20314;-71
2022/05/30 09:09:29;;;;;;;;;;;20.00;83.00;;;;;;5113573;28;19928;-71
2022/05/30 09:11:57;;;;;;;;;;;21.10;79.20;;;;;;5113609;28;20323;-71
2022/05/30 09:14:29;;;;;;;;;;;22.40;77.70;;;;;;5113536;28;20040;-71
2022/05/30 09:16:59;;;;;;;;;;;22.90;76.50;;;;;;5113459;28;19923;-73
2022/05/30 09:19:26;;;;;;;;;;;20.60;78.70;;;;;;5114593;28;20345;-71
2022/05/30 09:21:56;;;;;;;;;;;18.10;82.30;;;;;;5113394;28;19930;-71
2022/05/30 09:24:24;;;;;;;;;;;17.80;86.20;;;;;;5113786;28;19931;-71
2022/05/30 09:26:51;;;;;;;;;;;17.40;86.30;;;;;;5113252;28;19923;-71
2022/05/30 09:29:19;;;;;;;;;;;16.50;87.10;;;;;;5113307;28;20010;-71
2022/05/30 09:31:48;;;;;;;;;;;16.30;87.50;;;;;;5113407;28;19927;-70
2022/05/30 09:34:46;;;;;;;;;;;16.50;86.50;;;;;;5113854;28;19931;-71
2022/05/30 09:37:26;;;;;;;;;;;16.40;88.40;;;;;;5030790;28;20401;-71
2022/05/30 09:39:54;;;;;;;;;;;16.30;88.20;;;;;;5101547;28;19923;-70
2022/05/30 09:42:26;;;;;;;;;;;16.40;87.20;;;;;;5114602;28;20339;-71
2022/05/30 09:44:57;;;;;;;;;;;16.10;87.50;;;;;;5114595;28;19977;-71
2022/05/30 09:47:24;;;;;;;;;;;16.90;86.70;;;;;;5113444;28;20482;-71
2022/05/30 09:49:52;;;;;;;;;;;18.50;85.10;;;;;;5112909;28;19960;-72
2022/05/30 09:52:36;;;;;;;;;;;20.00;81.60;;;;;;5113049;28;19928;-71
2022/05/30 09:55:21;;;;;;;;;;;21.20;75.90;;;;;;5112464;28;20399;-71
2022/05/30 09:57:48;;;;;;;;;;;23.10;74.30;;;;;;5112867;28;19924;-71
2022/05/30 10:00:18;;;;;;;;;;;24.20;71.90;;;;;;5112669;28;19924;-71
2022/05/30 10:02:46;;;;;;;;;;;22.80;71.80;;;;;;5112773;28;19924;-71
2022/05/30 10:05:23;;;;;;;;;;;22.10;73.70;;;;;;5112410;28;19931;-71
2022/05/30 10:07:51;;;;;;;;;;;23.40;72.50;;;;;;5112939;28;19930;-71
2022/05/30 10:10:22;;;;;;;;;;;22.60;72.40;;;;;;5112374;28;20009;-71
2022/05/30 10:12:54;;;;;;;;;;;21.60;73.80;;;;;;5112824;28;19930;-71
2022/05/30 10:15:23;;;;;;;;;;;20.80;74.10;;;;;;5112510;28;19976;-71
2022/05/30 10:17:50;;;;;;;;;;;19.10;76.40;;;;;;5112670;28;19977;-71
2022/05/30 10:20:23;;;;;;;;;;;18.20;80.10;;;;;;5112581;28;19927;-71
2022/05/30 10:28:39;;;;;;;;;;;19.40;78.50;;;;;;5112564;28;20049;-71
2022/05/30 10:31:27;;;;;;;;;;;20.00;75.00;;;;;;5112809;28;19938;-71
2022/05/30 10:34:02;;;;;;;;;;;20.10;77.30;;;;;;5105707;28;19930;-71
2022/05/30 10:36:32;;;;;;;;;;;19.70;81.00;;;;;;5111836;28;19959;-71
2022/05/30 10:39:03;;;;;;;;;;;19.60;80.40;;;;;;5112606;28;20347;-72
2022/05/30 10:41:36;;;;;;;;;;;19.20;82.00;;;;;;5112824;28;19930;-72
2022/05/30 10:44:07;;;;;;;;;;;19.00;82.00;;;;;;5112304;28;20023;-72
2022/05/30 10:46:36;;;;;;;;;;;18.70;83.60;;;;;;5111938;28;19924;-71
2022/05/30 10:49:05;;;;;;;;;;;18.50;82.80;;;;;;5112332;28;19923;-72
2022/05/30 10:51:36;;;;;;;;;;;18.60;83.30;;;;;;5112204;28;19925;-71
2022/05/30 10:54:05;;;;;;;;;;;19.10;83.40;;;;;;5112215;28;20478;-72
2022/05/30 10:56:36;;;;;;;;;;;19.50;81.30;;;;;;5112060;28;19971;-72
2022/05/30 10:59:06;;;;;;;;;;;21.10;78.30;;;;;;5112119;28;20014;-72
2022/05/30 11:01:41;;;;;;;;;;;22.30;75.30;;;;;;5111890;28;20011;-72
2022/05/30 11:04:11;;;;;;;;;;;22.40;74.80;;;;;;5112717;28;19934;-72
2022/05/30 11:06:41;;;;;;;;;;;21.30;75.30;;;;;;5112380;28;20318;-72
2022/05/30 11:09:12;;;;;;;;;;;22.00;73.90;;;;;;5112269;28;19928;-72
2022/05/30 11:11:44;;;;;;;;;;;21.70;75.00;;;;;;5112801;28;20402;-72
2022/05/30 11:14:13;;;;;;;;;;;22.00;74.50;;;;;;5112102;28;20010;-72
2022/05/30 11:16:43;;;;;;;;;;;22.70;73.90;;;;;;5111625;28;20018;-72
2022/05/30 11:19:13;;;;;;;;;;;21.80;72.50;;;;;;5112084;28;20018;-72
2022/05/30 11:21:42;;;;;;;;;;;20.50;73.90;;;;;;5111969;28;19924;-73
2022/05/30 11:24:09;;;;;;;;;;;19.60;77.70;;;;;;5115083;28;19928;-72
2022/05/30 11:26:48;;;;;;;;;;;21.00;75.20;;;;;;5115515;28;19924;-72
2022/05/30 11:29:22;;;;;;;;;;;21.80;73.60;;;;;;5115958;28;20018;-72
2022/05/30 11:31:54;;;;;;;;;;;21.40;74.60;;;;;;5115782;28;20026;-71
2022/05/30 11:36:54;;;;;;;;;;;20.80;77.70;;;;;;5072544;28;19993;-69
2022/05/30 11:39:32;;;;;;;;;;;21.80;77.90;;;;;;5074720;28;20480;-67
2022/05/30 11:42:05;;;;;;;;;;;22.80;74.60;;;;;;5074841;28;19978;-68
2022/05/30 11:44:45;;;;;;;;;;;22.70;74.10;;;;;;5074745;28;20018;-68
2022/05/30 11:47:18;;;;;;;;;;;22.60;76.50;;;;;;5074865;28;19924;-68
2022/05/30 11:49:51;;;;;;;;;;;23.50;72.60;;;;;;5074562;28;20027;-68
2022/05/30 11:52:18;;;;;;;;;;;23.90;72.00;;;;;;5074474;28;19978;-68
2022/05/30 11:54:59;;;;;;;;;;;23.90;72.00;;;;;;5074180;28;19985;-67
2022/05/30 11:57:34;;;;;;;;;;;22.80;73.50;;;;;;5074461;28;20387;-68
2022/05/30 12:00:05;;;;;;;;;;;21.80;73.70;;;;;;5074483;28;20299;-68
2022/05/30 12:02:40;;;;;;;;;;;21.80;74.60;;;;;;5074629;28;20303;-67
2022/05/30 12:05:17;;;;;;;;;;;22.10;74.80;;;;;;5074334;28;19994;-68
2022/05/30 12:07:58;;;;;;;;;;;21.40;74.60;;;;;;5074425;28;20478;-67
2022/05/30 12:10:26;;;;;;;;;;;20.60;75.90;;;;;;5074530;28;20451;-67
2022/05/30 12:13:11;;;;;;;;;;;20.70;75.50;;;;;;5074545;28;19982;-68
2022/05/30 12:15:55;;;;;;;;;;;22.10;70.90;;;;;;5073792;28;20388;-67
2022/05/30 12:24:31;;;;;;;;;;;23.30;70.70;;;;;;5074043;28;19970;-68
2022/05/30 12:27:00;;;;;;;;;;;24.00;70.30;;;;;;5073778;28;19933;-68
2022/05/30 12:29:45;;;;;;;;;;;25.00;68.90;;;;;;5074063;28;19978;-68
2022/05/30 12:32:16;;;;;;;;;;;24.60;67.10;;;;;;5073954;28;20023;-67
2022/05/30 12:35:18;;;;;;;;;;;25.10;68.90;;;;;;5073488;28;19971;-68
2022/05/30 12:38:22;;;;;;;;;;;25.30;67.10;;;;;;5073785;28;20050;-68
2022/05/30 12:41:15;;;;;;;;;;;23.50;67.70;;;;;;5073808;28;20407;-68
2022/05/30 12:43:45;;;;;;;;;;;25.00;68.30;;;;;;5073825;28;19936;-67
2022/05/30 12:46:23;;;;;;;;;;;25.70;64.60;;;;;;5073644;28;20458;-67
2022/05/30 12:49:19;;;;;;;;;;;25.50;66.70;;;;;;5073636;28;20023;-68
2022/05/30 12:52:01;;;;;;;;;;;25.30;65.50;;;;;;5011532;28;19932;-68
2022/05/30 12:54:42;;;;;;;;;;;23.80;70.20;;;;;;5065076;28;19925;-68
2022/05/30 12:57:24;;;;;;;;;;;23.60;71.20;;;;;;5060517;28;19966;-69
2022/05/30 13:00:02;;;;;;;;;;;22.60;72.50;;;;;;5060106;28;20018;-67
2022/05/30 13:02:46;;;;;;;;;;;22.40;72.60;;;;;;5073463;28;20368;-68
2022/05/30 13:05:23;;;;;;;;;;;22.30;74.00;;;;;;5072991;28;20019;-68
2022/05/30 13:07:50;;;;;;;;;;;21.10;73.20;;;;;;5073180;28;20019;-68
2022/05/30 13:10:16;;;;;;;;;;;21.80;75.10;;;;;;5073036;28;20019;-68
2022/05/30 13:12:53;;;;;;;;;;;21.40;74.50;;;;;;5073049;28;19931;-68
2022/05/30 13:15:26;;;;;;;;;;;22.90;71.70;;;;;;5073059;28;19928;-68
2022/05/30 13:18:01;;;;;;;;;;;22.20;73.10;;;;;;5073211;28;19931;-68
2022/05/30 13:20:29;;;;;;;;;;;23.20;72.60;;;;;;5072970;28;19924;-68
2022/05/30 13:22:59;;;;;;;;;;;25.00;70.40;;;;;;5072792;28;19925;-68
2022/05/30 13:25:28;;;;;;;;;;;24.10;69.00;;;;;;5072446;28;20383;-68
2022/05/30 13:27:56;;;;;;;;;;;25.10;67.10;;;;;;5072728;28;20014;-68
2022/05/30 13:30:25;;;;;;;;;;;24.70;66.90;;;;;;5072605;28;19926;-68
2022/05/30 13:32:52;;;;;;;;;;;23.30;68.60;;;;;;5072620;28;19971;-68
2022/05/30 13:35:19;;;;;;;;;;;23.10;69.70;;;;;;5072186;28;20302;-67
2022/05/30 13:37:48;;;;;;;;;;;22.50;70.60;;;;;;5072793;28;20029;-68
2022/05/30 13:40:16;;;;;;;;;;;24.00;69.40;;;;;;5072482;28;20020;-69
2022/05/30 13:42:50;;;;;;;;;;;24.20;68.70;;;;;;5072514;28;19925;-69
2022/05/30 13:45:18;;;;;;;;;;;24.70;68.30;;;;;;5071811;28;20040;-69
2022/05/30 13:47:46;;;;;;;;;;;24.70;68.30;;;;;;5072317;28;19979;-68
2022/05/30 13:50:13;;;;;;;;;;;25.00;70.00;;;;;;5072189;28;19932;-68
2022/05/30 13:52:40;;;;;;;;;;;25.70;70.00;;;;;;5072273;28;19972;-68
2022/05/30 13:55:09;;;;;;;;;;;25.60;69.10;;;;;;5072022;28;20421;-69
2022/05/30 13:57:36;;;;;;;;;;;26.40;67.70;;;;;;5072395;28;19928;-69
2022/05/30 14:00:05;;;;;;;;;;;23.60;69.10;;;;;;5072029;28;20007;-69
2022/05/30 14:02:33;;;;;;;;;;;25.00;69.50;;;;;;5072109;28;19968;-69
2022/05/30 14:05:03;;;;;;;;;;;25.30;66.80;;;;;;5071742;28;20348;-68
2022/05/30 14:07:32;;;;;;;;;;;25.00;65.50;;;;;;5072121;28;20012;-69
2022/05/30 14:10:00;;;;;;;;;;;25.90;66.80;;;;;;5072284;28;20210;-68
2022/05/30 14:12:32;;;;;;;;;;;25.40;68.60;;;;;;5071880;28;19931;-68
2022/05/30 14:15:12;;;;;;;;;;;24.80;69.00;;;;;;5071843;28;20023;-68
2022/05/30 14:17:38;;;;;;;;;;;24.30;70.40;;;;;;5072115;28;19982;-68
2022/05/30 14:20:11;;;;;;;;;;;24.80;69.70;;;;;;5071727;28;19928;-68
2022/05/30 14:22:39;;;;;;;;;;;24.70;69.70;;;;;;5072246;28;20415;-69
2022/05/30 14:25:18;;;;;;;;;;;24.00;70.00;;;;;;5071824;28;19925;-67
2022/05/30 14:27:48;;;;;;;;;;;23.50;72.00;;;;;;5071851;28;20046;-68
2022/05/30 14:30:18;;;;;;;;;;;22.80;72.80;;;;;;5071778;28;20023;-68
2022/05/30 14:32:49;;;;;;;;;;;21.10;75.00;;;;;;5071766;28;19979;-68
2022/05/30 14:35:24;;;;;;;;;;;20.30;73.90;;;;;;5071891;28;20015;-70
2022/05/30 14:38:01;;;;;;;;;;;20.90;75.90;;;;;;5071693;28;20031;-69
2022/05/30 14:40:32;;;;;;;;;;;21.50;73.90;;;;;;5071592;28;19925;-69
2022/05/30 14:42:59;;;;;;;;;;;21.60;73.40;;;;;;5071745;28;19931;-69
2022/05/30 14:45:28;;;;;;;;;;;21.70;74.50;;;;;;5071518;28;20009;-69
2022/05/30 14:47:56;;;;;;;;;;;21.50;77.10;;;;;;5071604;28;19925;-69
2022/05/30 14:50:27;;;;;;;;;;;21.40;76.40;;;;;;5071808;28;19968;-69
2022/05/30 14:52:56;;;;;;;;;;;21.70;75.80;;;;;;5071619;28;20308;-70
2022/05/30 14:55:27;;;;;;;;;;;22.00;76.00;;;;;;5071304;28;19925;-69
2022/05/30 14:57:56;;;;;;;;;;;21.80;76.10;;;;;;5072896;28;19925;-69
2022/05/30 15:00:25;;;;;;;;;;;22.20;76.20;;;;;;5075756;28;19924;-70
2022/05/30 15:05:37;;;;;;;;;;;24.20;73.80;;;;;;5075353;28;19947;-70
2022/05/30 15:08:04;;;;;;;;;;;24.00;71.50;;;;;;5075530;28;20353;-70
2022/05/30 15:10:32;;;;;;;;;;;23.50;71.90;;;;;;5075220;28;20357;-69
2022/05/30 15:12:58;;;;;;;;;;;24.20;72.50;;;;;;5075443;28;20025;-70
2022/05/30 15:15:34;;;;;;;;;;;24.40;71.80;;;;;;5075312;28;20010;-70
2022/05/30 15:18:01;;;;;;;;;;;24.40;72.20;;;;;;5075524;28;19924;-70
2022/05/30 15:20:27;;;;;;;;;;;24.10;71.70;;;;;;5074983;28;19928;-70
2022/05/30 15:22:58;;;;;;;;;;;24.20;72.40;;;;;;5075227;28;20040;-69
2022/05/30 15:25:40;;;;;;;;;;;23.30;71.40;;;;;;5075241;28;19970;-70
2022/05/30 15:28:07;;;;;;;;;;;23.10;72.70;;;;;;5075206;28;19924;-70
2022/05/30 15:30:34;;;;;;;;;;;23.00;74.30;;;;;;5074877;28;19924;-69
2022/05/30 15:33:00;;;;;;;;;;;23.70;73.80;;;;;;5074945;28;20447;-69
2022/05/30 15:35:27;;;;;;;;;;;24.10;71.40;;;;;;5074458;28;20032;-69
2022/05/30 15:37:54;;;;;;;;;;;24.20;72.20;;;;;;5074815;28;20019;-69
2022/05/30 15:40:26;;;;;;;;;;;23.90;70.70;;;;;;5074602;28;19932;-69
2022/05/30 15:42:58;;;;;;;;;;;23.00;72.00;;;;;;5075175;28;19924;-69
2022/05/30 15:45:25;;;;;;;;;;;22.80;72.50;;;;;;5074923;28;19928;-69
2022/05/30 15:47:53;;;;;;;;;;;22.30;72.70;;;;;;5074833;28;20002;-70
2022/05/30 15:50:20;;;;;;;;;;;22.90;73.30;;;;;;5074738;28;19990;-70
2022/05/30 15:58:18;;;;;;;;;;;22.50;72.80;;;;;;5074494;28;19947;-69
2022/05/30 16:00:45;;;;;;;;;;;21.70;73.80;;;;;;5074523;28;20020;-70
2022/05/30 16:03:16;;;;;;;;;;;21.60;75.10;;;;;;5074252;28;19931;-69
2022/05/30 16:05:43;;;;;;;;;;;21.20;75.60;;;;;;5074620;28;19968;-69
2022/05/30 16:08:12;;;;;;;;;;;20.30;75.70;;;;;;5074359;28;20229;-69
2022/05/30 16:10:41;;;;;;;;;;;20.00;76.90;;;;;;5073954;28;20420;-69
2022/05/30 16:13:09;;;;;;;;;;;20.60;75.50;;;;;;5074264;28;20007;-69
2022/05/30 16:15:35;;;;;;;;;;;21.50;75.10;;;;;;5073858;28;19925;-69
2022/05/30 16:18:02;;;;;;;;;;;21.80;74.50;;;;;;5074186;28;19925;-69
2022/05/30 16:20:29;;;;;;;;;;;21.40;73.90;;;;;;5073801;28;19931;-70
2022/05/30 16:22:56;;;;;;;;;;;20.40;76.50;;;;;;5073971;28;19970;-70
2022/05/30 16:25:24;;;;;;;;;;;20.50;76.40;;;;;;5073889;28;19924;-69
2022/05/30 16:27:53;;;;;;;;;;;21.00;75.90;;;;;;5074238;28;20021;-70
2022/05/30 16:30:20;;;;;;;;;;;21.40;75.70;;;;;;5073724;28;20388;-70
2022/05/30 16:32:47;;;;;;;;;;;21.20;76.00;;;;;;5074131;28;19978;-70
2022/05/30 16:35:14;;;;;;;;;;;20.70;76.30;;;;;;5073166;28;20304;-70
2022/05/30 16:37:41;;;;;;;;;;;20.70;77.00;;;;;;5073862;28;19967;-70
2022/05/30 16:40:08;;;;;;;;;;;20.80;77.30;;;;;;5073617;28;19928;-70
2022/05/30 16:42:35;;;;;;;;;;;20.70;76.90;;;;;;5073997;28;20392;-70
2022/05/30 16:45:03;;;;;;;;;;;20.30;76.20;;;;;;5073538;28;19924;-69
2022/05/30 16:47:30;;;;;;;;;;;20.60;76.00;;;;;;5073678;28;19964;-70
2022/05/30 16:49:57;;;;;;;;;;;20.20;77.00;;;;;;5073436;28;20008;-70
2022/05/30 16:52:25;;;;;;;;;;;20.70;76.70;;;;;;5073466;28;20448;-70
2022/05/30 16:54:53;;;;;;;;;;;20.00;77.00;;;;;;5073591;28;19924;-70
2022/05/30 16:57:20;;;;;;;;;;;19.80;77.50;;;;;;5073374;28;19924;-70
2022/05/30 16:59:47;;;;;;;;;;;20.00;78.10;;;;;;5073232;28;20400;-70
2022/05/30 17:02:15;;;;;;;;;;;19.90;77.30;;;;;;5073322;28;20440;-70
2022/05/30 17:04:42;;;;;;;;;;;19.70;78.10;;;;;;5073405;28;19925;-69
2022/05/30 17:07:09;;;;;;;;;;;19.80;79.10;;;;;;5073431;28;19970;-69
2022/05/30 17:09:36;;;;;;;;;;;19.90;78.80;;;;;;5073254;28;19991;-70
2022/05/30 17:12:12;;;;;;;;;;;20.30;77.50;;;;;;5073339;28;19924;-70
2022/05/30 17:14:39;;;;;;;;;;;20.40;75.70;;;;;;5072386;28;19924;-69
2022/05/30 17:17:06;;;;;;;;;;;20.60;76.40;;;;;;5073028;28;19924;-70
2022/05/30 17:19:34;;;;;;;;;;;20.50;76.50;;;;;;5073321;28;20007;-69
2022/05/30 17:22:01;;;;;;;;;;;20.20;76.70;;;;;;5072221;28;20399;-70
2022/05/30 17:24:28;;;;;;;;;;;20.00;76.80;;;;;;5072850;28;20022;-70
2022/05/30 17:29:41;;;;;;;;;;;19.60;77.70;;;;;;5072939;28;19966;-70
2022/05/30 17:32:08;;;;;;;;;;;19.60;79.30;;;;;;5072798;28;20361;-70
2022/05/30 17:34:36;;;;;;;;;;;19.40;79.50;;;;;;5086749;23;20019;-72
2022/05/30 17:37:03;;;;;;;;;;;19.30;79.80;;;;;;5092654;28;20306;-73
2022/05/30 17:39:30;;;;;;;;;;;19.50;80.00;;;;;;5092991;28;19928;-73
2022/05/30 17:41:57;;;;;;;;;;;19.10;80.40;;;;;;5092831;28;19931;-73
2022/05/30 17:44:24;;;;;;;;;;;18.80;81.20;;;;;;5093110;28;20384;-73
2022/05/30 17:46:54;;;;;;;;;;;18.80;81.10;;;;;;5092831;28;20019;-73
2022/05/30 17:49:25;;;;;;;;;;;18.90;80.70;;;;;;5092829;28;20019;-73
2022/05/30 17:51:55;;;;;;;;;;;18.70;81.10;;;;;;5093219;28;20450;-73
2022/05/30 17:54:22;;;;;;;;;;;18.90;81.60;;;;;;5092888;28;19924;-73
2022/05/30 17:56:51;;;;;;;;;;;19.10;80.90;;;;;;5092757;28;20040;-73
2022/05/30 17:59:18;;;;;;;;;;;19.00;80.90;;;;;;5093006;28;19924;-73
2022/05/30 18:01:45;;;;;;;;;;;18.90;80.70;;;;;;5092764;28;20010;-73
2022/05/30 18:04:11;;;;;;;;;;;18.90;80.50;;;;;;5092615;28;20471;-73
2022/05/30 18:06:40;;;;;;;;;;;18.80;80.30;;;;;;5092534;28;19924;-73
2022/05/30 18:09:13;;;;;;;;;;;18.70;80.40;;;;;;5092618;28;20006;-73
2022/05/30 18:11:42;;;;;;;;;;;18.60;81.20;;;;;;5092885;28;19935;-73
2022/05/30 18:14:13;;;;;;;;;;;18.60;81.10;;;;;;5092379;28;20026;-73
2022/05/30 18:16:42;;;;;;;;;;;18.60;80.70;;;;;;5092375;28;20023;-73
2022/05/30 18:22:02;;;;;;;;;;;18.60;81.30;;;;;;5092648;28;20399;-73
2022/05/30 18:24:36;;;;;;;;;;;18.20;81.80;;;;;;5092599;28;19946;-73
2022/05/30 18:27:03;;;;;;;;;;;18.20;81.60;;;;;;5092059;28;19924;-73
2022/05/30 18:29:30;;;;;;;;;;;18.10;82.40;;;;;;5092483;28;19924;-72
2022/05/30 18:32:00;;;;;;;;;;;18.00;83.20;;;;;;5092317;28;20299;-73
2022/05/30 18:34:33;;;;;;;;;;;17.80;82.00;;;;;;5092116;28;20026;-73
2022/05/30 18:37:02;;;;;;;;;;;17.50;83.90;;;;;;5091723;28;20014;-73
2022/05/30 18:39:41;;;;;;;;;;;17.50;83.90;;;;;;5092034;28;19924;-72
2022/05/30 18:42:15;;;;;;;;;;;17.30;84.90;;;;;;5092126;28;20357;-73
2022/05/30 18:44:46;;;;;;;;;;;17.20;85.20;;;;;;5091937;28;19928;-73
2022/05/30 18:47:14;;;;;;;;;;;17.00;85.40;;;;;;5091964;28;20443;-72
2022/05/30 18:49:43;;;;;;;;;;;16.80;86.20;;;;;;5091715;28;20023;-72
2022/05/30 18:52:10;;;;;;;;;;;16.80;86.70;;;;;;5091981;28;19967;-73
2022/05/30 18:54:39;;;;;;;;;;;16.60;87.10;;;;;;5091833;28;20039;-72
2022/05/30 18:57:07;;;;;;;;;;;16.30;87.50;;;;;;5091577;28;19924;-72
2022/05/30 18:59:37;;;;;;;;;;;16.20;88.90;;;;;;5091690;28;20039;-72
2022/05/30 19:02:04;;;;;;;;;;;16.30;88.90;;;;;;5091729;28;19966;-72
2022/05/30 19:04:31;;;;;;;;;;;16.40;88.50;;;;;;5091875;28;20019;-73
2022/05/30 19:06:58;;;;;;;;;;;16.30;89.30;;;;;;5091357;28;20022;-73
2022/05/30 19:09:25;;;;;;;;;;;16.00;90.00;;;;;;5091770;28;19924;-72
2022/05/30 19:11:55;;;;;;;;;;;15.90;90.20;;;;;;5092018;28;20277;-73
2022/05/30 19:14:25;;;;;;;;;;;15.90;90.40;;;;;;5091700;28;19924;-73
2022/05/30 19:19:41;;;;;;;;;;;15.50;91.30;;;;;;5091997;28;19990;-72
2022/05/30 19:22:07;;;;;;;;;;;15.20;91.50;;;;;;5091909;28;20003;-72
2022/05/30 19:24:34;;;;;;;;;;;15.10;91.50;;;;;;5091745;28;19931;-72
2022/05/30 19:27:03;;;;;;;;;;;15.10;91.70;;;;;;5091256;28;20462;-72
2022/05/30 19:29:29;;;;;;;;;;;14.90;92.10;;;;;;5091680;28;19967;-72
2022/05/30 19:31:57;;;;;;;;;;;14.90;92.80;;;;;;5091760;28;20022;-72
2022/05/30 19:34:24;;;;;;;;;;;14.90;92.60;;;;;;5091801;28;19931;-72
2022/05/30 19:36:50;;;;;;;;;;;14.80;92.90;;;;;;5091303;28;20028;-72
2022/05/30 19:39:17;;;;;;;;;;;14.70;93.10;;;;;;5091499;28;19924;-72
2022/05/30 19:41:44;;;;;;;;;;;15.00;92.90;;;;;;5091386;28;19971;-72
2022/05/30 19:44:14;;;;;;;;;;;14.70;93.30;;;;;;5092979;28;19934;-72
2022/05/30 19:46:41;;;;;;;;;;;14.50;93.70;;;;;;5095095;28;20010;-72
2022/05/30 19:49:09;;;;;;;;;;;14.40;94.00;;;;;;5096402;28;19994;-72
2022/05/30 19:51:36;;;;;;;;;;;14.10;94.90;;;;;;5096598;28;19985;-72
2022/05/30 19:54:03;;;;;;;;;;;14.00;95.00;;;;;;5096342;28;20015;-72
2022/05/30 19:56:30;;;;;;;;;;;13.90;94.90;;;;;;5095853;28;19967;-72
2022/05/30 19:58:57;;;;;;;;;;;13.80;95.00;;;;;;5095923;28;19924;-73
2022/05/30 20:01:27;;;;;;;;;;;13.80;95.20;;;;;;5095771;28;20026;-73
2022/05/30 20:03:54;;;;;;;;;;;13.50;95.40;;;;;;5095635;28;20027;-72
2022/05/30 20:06:20;;;;;;;;;;;13.50;95.50;;;;;;5095950;28;19985;-72
2022/05/30 20:08:47;;;;;;;;;;;13.50;96.00;;;;;;5095622;28;20023;-72
2022/05/30 20:11:14;;;;;;;;;;;13.30;96.40;;;;;;5095326;28;19931;-72
2022/05/30 20:13:40;;;;;;;;;;;13.10;97.00;;;;;;5095192;28;20031;-72
2022/05/30 20:16:07;;;;;;;;;;;13.10;97.70;;;;;;5094591;28;19959;-72
2022/05/30 20:18:35;;;;;;;;;;;12.90;98.00;;;;;;5094742;28;19931;-72
2022/05/30 20:21:02;;;;;;;;;;;12.90;97.90;;;;;;5094858;28;19924;-72
2022/05/30 20:23:28;;;;;;;;;;;13.10;97.50;;;;;;5094550;28;20007;-72
2022/05/30 20:25:55;;;;;;;;;;;13.10;97.40;;;;;;5094109;28;20443;-72
2022/05/30 20:28:22;;;;;;;;;;;12.90;97.70;;;;;;5094493;28;19924;-72
2022/05/30 20:30:49;;;;;;;;;;;12.80;97.40;;;;;;5094455;28;19950;-72
2022/05/30 20:33:15;;;;;;;;;;;12.90;97.10;;;;;;5094465;28;20459;-72
2022/05/30 20:35:43;;;;;;;;;;;13.00;97.20;;;;;;5093857;28;19963;-72
2022/05/30 20:38:12;;;;;;;;;;;13.00;97.00;;;;;;5094407;28;20018;-72
2022/05/30 20:43:23;;;;;;;;;;;12.90;97.20;;;;;;5094289;28;20020;-72
2022/05/30 20:45:50;;;;;;;;;;;12.70;97.20;;;;;;5094192;28;20011;-72
2022/05/30 20:48:19;;;;;;;;;;;12.60;97.20;;;;;;5094234;28;20018;-72
2022/05/30 20:50:47;;;;;;;;;;;12.70;97.20;;;;;;5094348;28;19966;-73
2022/05/30 20:53:14;;;;;;;;;;;12.50;97.40;;;;;;5093971;28;19947;-72
2022/05/30 20:55:41;;;;;;;;;;;12.50;97.40;;;;;;5093760;28;19932;-72
2022/05/30 20:58:08;;;;;;;;;;;12.30;97.60;;;;;;5093956;28;19969;-72
2022/05/30 21:00:35;;;;;;;;;;;12.30;97.70;;;;;;5093715;28;19952;-72
2022/05/30 21:03:02;;;;;;;;;;;12.40;97.70;;;;;;5093853;28;19924;-72
2022/05/30 21:05:29;;;;;;;;;;;12.20;97.80;;;;;;5093499;28;19972;-72
2022/05/30 21:07:57;;;;;;;;;;;12.30;98.20;;;;;;5093691;28;20031;-72
2022/05/30 21:10:24;;;;;;;;;;;12.30;98.40;;;;;;5093563;28;19928;-72
2022/05/30 21:12:51;;;;;;;;;;;12.10;98.50;;;;;;5093686;28;19934;-72
2022/05/30 21:15:18;;;;;;;;;;;12.20;98.90;;;;;;5093530;28;19931;-72
2022/05/30 21:17:53;;;;;;;;;;;12.10;99.10;;;;;;5093578;28;20019;-72
2022/05/30 21:20:20;;;;;;;;;;;11.80;99.00;;;;;;5093387;28;20027;-72
2022/05/30 21:22:47;;;;;;;;;;;11.90;99.00;;;;;;5093371;28;19964;-72
2022/05/30 21:25:16;;;;;;;;;;;12.10;98.70;;;;;;5093325;28;20019;-72
2022/05/30 21:27:43;;;;;;;;;;;12.00;99.00;;;;;;5093427;28;19958;-72
2022/05/30 21:30:10;;;;;;;;;;;12.00;98.70;;;;;;5093601;28;20014;-72
2022/05/30 21:32:42;;;;;;;;;;;11.80;98.90;;;;;;5093528;28;19924;-72
2022/05/30 21:35:10;;;;;;;;;;;11.80;99.40;;;;;;5093114;28;19923;-72
2022/05/30 21:37:37;;;;;;;;;;;11.80;99.30;;;;;;5093180;28;20023;-72
2022/05/30 21:40:04;;;;;;;;;;;11.80;99.20;;;;;;5092887;28;20445;-72
2022/05/30 21:42:32;;;;;;;;;;;11.70;99.30;;;;;;5092932;28;19969;-72
2022/05/30 21:44:59;;;;;;;;;;;11.70;99.30;;;;;;5092811;28;20015;-73
2022/05/30 21:47:26;;;;;;;;;;;11.50;99.60;;;;;;5093210;28;20022;-72